Time;durP1;ratioP1;P1;durP2;ratioP2;P2;SDS_P1;SDS_P2;PMS_P1;PMS_P2;Temp;Humidity;BMP_temperature;BMP_pressure;BME280_temperature;BME280_humidity;BME280_pressure;Samples;Min_cycle;Max_cycle;Signal;HPM_P1;HPM_P2
2022/08/22 00:00:40;;;;;;;;;;;;;;;;;;;;;
2022/08/22 00:06:14;;;;;;;3.10;1.60;;;;;;;15.26;100.00;98222.02;110132;1276;1016515;-84
2022/08/22 00:11:39;;;;;;;1.50;1.40;;;;;;;15.22;100.00;98212.52;110238;1277;1016131;-84
2022/08/22 00:17:46;;;;;;;;;;;;;;;;;;;;;
2022/08/22 00:24:27;;;;;;;;;;;;;;;;;;;;;
2022/08/22 00:30:09;;;;;;;1.90;1.50;;;;;;;15.21;100.00;98226.36;110096;1278;1016378;-82
2022/08/22 00:36:15;;;;;;;1.90;1.60;;;;;;;15.23;100.00;98230.89;110017;1278;1015954;-83
2022/08/22 00:42:45;;;;;;;1.70;1.60;;;;;;;15.24;100.00;98226.83;110241;1277;1018365;-83
2022/08/22 00:49:29;;;;;;;;;;;;;;;;;;;;;
2022/08/22 00:55:52;;;;;;;2.30;1.70;;;;;;;15.25;100.00;98225.92;110117;1276;1018453;-83
2022/08/22 01:02:33;;;;;;;2.30;2.00;;;;;;;15.26;100.00;98223.49;110087;1277;1016572;-81
2022/08/22 01:09:05;;;;;;;;;;;;;;;;;;;;;
2022/08/22 01:15:09;;;;;;;2.00;1.60;;;;;;;15.23;100.00;98229.18;110225;1277;1015935;-83
2022/08/22 01:21:23;;;;;;;1.60;1.50;;;;;;;15.23;100.00;98232.66;110159;1277;1016216;-83
2022/08/22 01:27:34;;;;;;;1.50;1.30;;;;;;;15.23;100.00;98229.49;110264;1277;1016607;-84
2022/08/22 01:34:10;;;;;;;;;;;;;;;;;;;;;
2022/08/22 01:46:47;;;;;;;3.70;2.60;;;;;;;15.21;100.00;98233.44;106135;1276;10340522;-83
2022/08/22 01:52:11;;;;;;;3.50;2.60;;;;;;;15.19;100.00;98223.73;110312;1277;1016545;-84
2022/08/22 01:57:15;;;;;;;9.10;3.30;;;;;;;15.20;100.00;98221.67;110311;1277;1016501;-84
2022/08/22 02:03:24;;;;;;;5.50;3.40;;;;;;;15.20;100.00;98219.52;110170;1276;1016616;-84
2022/08/22 02:09:45;;;;;;;;;;;;;;;;;;;;;
2022/08/22 02:15:46;;;;;;;5.50;4.50;;;;;;;15.22;100.00;98218.51;110522;1276;1017474;-84
2022/08/22 02:22:11;;;;;;;5.80;4.90;;;;;;;15.25;100.00;98223.76;110444;1277;1016599;-84
2022/08/22 02:28:59;;;;;;;6.30;4.80;;;;;;;15.27;100.00;98214.18;110358;1276;1016591;-84
2022/08/22 02:35:41;;;;;;;7.50;5.30;;;;;;;15.27;100.00;98215.36;109545;1283;1016731;-83
2022/08/22 02:41:38;;;;;;;7.60;5.70;;;;;;;15.28;100.00;98216.30;110206;1276;1016411;-83
2022/08/22 02:47:15;;;;;;;9.70;6.70;;;;;;;15.29;100.00;98216.20;110199;1276;1016568;-84
2022/08/22 02:52:44;;;;;;;10.20;6.80;;;;;;;15.32;100.00;98216.36;110297;1277;1016675;-85
2022/08/22 02:58:08;;;;;;;10.60;7.00;;;;;;;15.33;100.00;98215.42;110138;1276;1016590;-84
2022/08/22 03:03:44;;;;;;;7.70;5.50;;;;;;;15.34;100.00;98213.05;110169;1277;1017085;-83
2022/08/22 03:09:32;;;;;;;10.20;7.10;;;;;;;15.35;100.00;98217.70;110111;1278;1017220;-85
2022/08/22 03:15:29;;;;;;;11.10;7.10;;;;;;;15.37;100.00;98214.53;110179;1277;1017178;-83
2022/08/22 03:21:30;;;;;;;10.50;7.00;;;;;;;15.37;100.00;98217.64;110084;1277;1017670;-83
2022/08/22 03:28:02;;;;;;;13.40;7.10;;;;;;;15.40;100.00;98224.50;110152;1277;1016625;-83
2022/08/22 03:34:11;;;;;;;13.10;7.80;;;;;;;15.42;100.00;98229.20;110262;1277;1016610;-83
2022/08/22 03:40:09;;;;;;;14.10;7.60;;;;;;;15.43;100.00;98231.11;109888;1279;1016857;-85
2022/08/22 03:46:26;;;;;;;13.00;7.60;;;;;;;15.44;100.00;98232.20;109883;1279;1016638;-83
2022/08/22 03:52:20;;;;;;;;;;;;;;;;;;;;;
2022/08/22 03:59:03;;;;;;;;;;;;;;;;;;;;;
2022/08/22 04:05:35;;;;;;;10.20;6.20;;;;;;;15.46;100.00;98221.00;110327;1277;1018420;-84
2022/08/22 04:12:27;;;;;;;;;;;;;;;;;;;;;
2022/08/22 04:19:21;;;;;;;11.40;7.20;;;;;;;15.46;100.00;98229.96;110310;1277;1018938;-84
2022/08/22 04:25:46;;;;;;;11.20;7.20;;;;;;;15.46;100.00;98229.19;110134;1276;1017058;-82
2022/08/22 04:32:15;;;;;;;;;;;;;;;;;;;;;
2022/08/22 04:38:48;;;;;;;;;;;;;;;;;;;;;
2022/08/22 04:44:43;;;;;;;13.30;8.00;;;;;;;15.48;100.00;98238.73;110222;1277;1016254;-83
2022/08/22 04:50:34;;;;;;;15.00;8.10;;;;;;;15.49;100.00;98244.70;110229;1277;1016297;-82
2022/08/22 04:56:54;;;;;;;;;;;;;;;;;;;;;
2022/08/22 05:02:28;;;;;;;14.50;9.70;;;;;;;15.52;100.00;98263.56;110018;1279;1016290;-83
2022/08/22 05:08:14;;;;;;;15.30;8.80;;;;;;;15.52;100.00;98268.13;110164;1276;1018459;-84
2022/08/22 05:13:52;;;;;;;14.20;8.00;;;;;;;15.53;100.00;98268.91;110172;1277;1018350;-84
2022/08/22 05:19:39;;;;;;;15.00;8.30;;;;;;;15.55;100.00;98264.58;110123;1276;1016472;-84
2022/08/22 05:25:10;;;;;;;15.70;9.20;;;;;;;15.57;100.00;98273.83;110086;1277;1018431;-83
2022/08/22 05:30:38;;;;;;;15.60;8.60;;;;;;;15.61;100.00;98279.89;110044;1276;1016632;-84
2022/08/22 05:35:53;;;;;;;19.20;9.40;;;;;;;15.62;100.00;98283.55;110053;1276;1016701;-84
2022/08/22 05:41:32;;;;;;;16.90;10.00;;;;;;;15.62;100.00;98291.41;110046;1276;1016429;-83
2022/08/22 05:47:20;;;;;;;17.80;10.80;;;;;;;15.62;100.00;98298.14;110370;1276;1015882;-85
2022/08/22 05:54:19;;;;;;;;;;;;;;;;;;;;;
2022/08/22 06:00:35;;;;;;;17.90;10.60;;;;;;;15.61;100.00;98316.08;110565;1276;1017704;-82
2022/08/22 06:06:01;;;;;;;16.50;9.50;;;;;;;15.62;100.00;98321.97;110795;1276;1016606;-81
2022/08/22 06:12:11;;;;;;;17.70;10.90;;;;;;;15.61;100.00;98318.86;111429;1276;1016573;-86
2022/08/22 06:18:27;;;;;;;18.00;10.50;;;;;;;15.63;100.00;98319.09;111118;1276;1016505;-79
2022/08/22 06:30:54;;;;;;;20.00;10.30;;;;;;;15.64;100.00;98325.13;111017;1276;1016388;-84
2022/08/22 06:37:03;;;;;;;;;;;;;;;;;;;;;
2022/08/22 06:43:59;;;;;;;14.30;8.80;;;;;;;15.66;100.00;98323.19;111518;1276;1017344;-89
2022/08/22 06:49:45;;;;;;;18.50;9.90;;;;;;;15.67;100.00;98324.16;111863;1275;1016620;-88
2022/08/22 06:55:44;;;;;;;14.40;8.50;;;;;;;15.69;100.00;98328.40;111552;1276;1016547;-88
2022/08/22 07:02:08;;;;;;;;;;;;;;;;;;;;;
2022/08/22 07:07:30;;;;;;;15.40;7.60;;;;;;;15.72;100.00;98331.73;111454;1276;1017147;-88
2022/08/22 07:13:17;;;;;;;;;;;;;;;;;;;;;
2022/08/22 07:19:35;;;;;;;;;;;;;;;;;;;;;
2022/08/22 07:26:00;;;;;;;;;;;;;;;;;;;;;
2022/08/22 07:32:19;;;;;;;12.50;6.10;;;;;;;15.86;100.00;98342.98;110054;1280;1016575;-84
2022/08/22 07:38:34;;;;;;;11.50;7.00;;;;;;;15.92;100.00;98341.86;110508;1277;1018395;-82
2022/08/22 07:44:34;;;;;;;14.00;6.60;;;;;;;15.95;100.00;98331.69;110758;1276;1016694;-80
2022/08/22 07:50:26;;;;;;;14.30;7.30;;;;;;;16.06;100.00;98330.36;110981;1276;1016507;-80
2022/08/22 07:56:47;;;;;;;10.90;6.50;;;;;;;16.16;100.00;98341.34;110686;1276;1016260;-80
2022/08/22 08:02:22;;;;;;;14.50;7.30;;;;;;;16.19;100.00;98350.69;110888;1279;1016650;-80
2022/08/22 08:07:57;;;;;;;;;;;;;;;;;;;;;
2022/08/22 08:13:38;;;;;;;13.70;7.00;;;;;;;16.10;100.00;98353.79;110647;1276;1020736;-79
2022/08/22 08:19:05;;;;;;;11.90;6.90;;;;;;;16.12;100.00;98357.31;110694;1276;1016734;-80
2022/08/22 08:25:13;;;;;;;13.90;7.10;;;;;;;16.12;100.00;98348.91;110426;1276;1016127;-79
2022/08/22 08:31:04;;;;;;;10.00;6.50;;;;;;;16.17;100.00;98348.39;110207;1276;1016408;-80
2022/08/22 08:37:29;;;;;;;13.20;7.30;;;;;;;16.22;100.00;98346.31;109972;1279;1016369;-80
2022/08/22 08:43:30;;;;;;;11.70;6.40;;;;;;;16.25;100.00;98349.34;110363;1279;1019167;-81
2022/08/22 08:49:19;;;;;;;11.90;6.70;;;;;;;16.21;100.00;98346.52;110732;1276;1017967;-80
2022/08/22 08:55:27;;;;;;;9.70;5.90;;;;;;;16.25;100.00;98342.86;110208;1277;1016614;-81
2022/08/22 09:01:43;;;;;;;8.70;5.10;;;;;;;16.32;100.00;98340.68;110664;1276;1016465;-79
2022/08/22 09:07:46;;;;;;;7.50;4.30;;;;;;;16.36;100.00;98335.17;110530;1276;1016302;-80
2022/08/22 09:13:52;;;;;;;7.90;4.40;;;;;;;16.37;100.00;98333.12;110799;1276;1016485;-81
2022/08/22 09:20:18;;;;;;;;;;;;;;;;;;;;;
2022/08/22 09:26:07;;;;;;;7.30;5.40;;;;;;;16.25;100.00;98329.05;110324;1276;1016493;-81
2022/08/22 09:31:31;;;;;;;9.20;6.20;;;;;;;16.26;100.00;98326.05;110693;1278;1016097;-81
2022/08/22 09:37:15;;;;;;;12.20;7.50;;;;;;;16.27;100.00;98334.42;110557;1276;1016134;-81
2022/08/22 09:43:24;;;;;;;12.90;7.30;;;;;;;16.28;100.00;98343.09;110989;1276;1018703;-79
2022/08/22 09:49:17;;;;;;;;;;;;;;;;;;;;;
2022/08/22 09:55:17;;;;;;;17.60;9.90;;;;;;;16.32;100.00;98353.90;110619;1277;1015999;-80
2022/08/22 10:02:33;;;;;;;;;;;;;;;;;;;;;
2022/08/22 10:08:37;;;;;;;19.60;10.40;;;;;;;16.44;100.00;98362.92;110044;1277;1016145;-82
2022/08/22 10:14:39;;;;;;;;;;;;;;;;;;;;;
2022/08/22 10:20:37;;;;;;;19.00;10.60;;;;;;;16.69;100.00;98357.13;110587;1277;1016687;-83
2022/08/22 10:26:27;;;;;;;;;;;;;;;;;;;;;
2022/08/22 10:32:35;;;;;;;24.40;12.50;;;;;;;16.88;100.00;98366.39;110646;1276;1016462;-82
2022/08/22 10:38:04;;;;;;;26.10;12.70;;;;;;;16.97;100.00;98372.46;110619;1276;1016381;-80
2022/08/22 10:44:15;;;;;;;;;;;;;;;;;;;;;
2022/08/22 10:49:38;;;;;;;26.60;13.50;;;;;;;16.98;100.00;98382.00;110323;1276;1016673;-83
2022/08/22 10:55:16;;;;;;;24.90;12.90;;;;;;;16.93;100.00;98375.85;110389;1276;1016904;-83
2022/08/22 11:01:11;;;;;;;24.20;12.70;;;;;;;16.92;100.00;98373.42;110829;1276;1016424;-82
2022/08/22 11:07:22;;;;;;;22.30;12.90;;;;;;;16.91;100.00;98376.48;110770;1276;1016636;-84
2022/08/22 11:12:43;;;;;;;25.50;12.70;;;;;;;16.92;100.00;98376.28;110382;1276;1016295;-76
2022/08/22 11:18:24;;;;;;;25.70;14.20;;;;;;;16.92;100.00;98377.52;110082;1276;1017298;-76
2022/08/22 11:24:18;;;;;;;;;;;;;;;;;;;;;
2022/08/22 11:30:43;;;;;;;27.90;13.50;;;;;;;16.97;100.00;98370.67;110072;1276;1018623;-75
2022/08/22 11:37:10;;;;;;;26.30;14.00;;;;;;;17.04;100.00;98370.74;110320;1276;1019138;-79
2022/08/22 11:42:52;;;;;;;32.80;15.90;;;;;;;17.06;100.00;98373.43;109828;1275;1016671;-79
2022/08/22 11:49:01;;;;;;;27.80;13.50;;;;;;;17.12;100.00;98374.31;110375;1277;1017991;-78
2022/08/22 11:54:58;;;;;;;32.20;15.00;;;;;;;17.14;100.00;98375.23;110672;1276;1016410;-79
2022/08/22 12:01:04;;;;;;;29.20;16.30;;;;;;;17.21;100.00;98371.79;109804;1277;1016677;-79
2022/08/22 12:07:26;;;;;;;;;;;;;;;;;;;;;
2022/08/22 12:13:48;;;;;;;32.40;16.50;;;;;;;17.41;100.00;98360.29;110506;1277;1016132;-78
2022/08/22 12:20:20;;;;;;;;;;;;;;;;;;;;;
2022/08/22 12:27:06;;;;;;;;;;;;;;;;;;;;;
2022/08/22 12:33:14;;;;;;;;;;;;;;;;;;;;;
2022/08/22 12:39:26;;;;;;;31.20;15.90;;;;;;;17.79;100.00;98345.98;110659;1275;1018458;-77
2022/08/22 12:46:02;;;;;;;;;;;;;;;;;;;;;
2022/08/22 12:52:23;;;;;;;32.00;17.70;;;;;;;18.47;100.00;98345.46;110225;1279;1017142;-79
2022/08/22 12:57:49;;;;;;;30.90;17.70;;;;;;;18.66;100.00;98341.80;110407;1276;1018033;-79
2022/08/22 13:03:15;;;;;;;30.50;17.30;;;;;;;18.79;100.00;98339.85;110305;1276;1016241;-81
2022/08/22 13:08:51;;;;;;;30.50;16.60;;;;;;;18.81;100.00;98346.86;110490;1278;1019101;-78
2022/08/22 13:14:29;;;;;;;30.70;15.90;;;;;;;18.80;100.00;98351.26;110621;1279;1016209;-80
2022/08/22 13:19:56;;;;;;;29.90;16.20;;;;;;;18.82;100.00;98352.56;110664;1277;1016610;-80
2022/08/22 13:25:48;;;;;;;25.40;15.80;;;;;;;18.81;100.00;98348.80;110860;1277;1016526;-80
2022/08/22 13:30:55;;;;;;;25.60;15.50;;;;;;;18.87;100.00;98353.52;110744;1277;1016470;-80
2022/08/22 13:36:20;;;;;;;24.40;15.70;;;;;;;18.82;100.00;98355.20;110927;1277;1016409;-80
2022/08/22 13:41:55;;;;;;;28.40;15.60;;;;;;;18.78;100.00;98359.66;110851;1277;1016486;-76
2022/08/22 13:47:25;;;;;;;32.50;17.80;;;;;;;18.70;100.00;98362.05;108786;1278;3290111;-77
2022/08/22 13:52:48;;;;;;;30.70;17.10;;;;;;;18.58;100.00;98363.72;110162;1276;1016678;-74
2022/08/22 13:58:59;;;;;;;35.20;17.00;;;;;;;18.55;100.00;98363.70;109919;1276;1018118;-75
2022/08/22 14:04:45;;;;;;;35.20;17.60;;;;;;;18.50;100.00;98357.63;109926;1277;1016327;-77
2022/08/22 14:10:17;;;;;;;36.70;18.10;;;;;;;18.46;100.00;98348.77;109725;1278;1019457;-77
2022/08/22 14:15:35;;;;;;;30.10;15.40;;;;;;;18.40;100.00;98340.96;109669;1276;1018441;-77
2022/08/22 14:21:10;;;;;;;33.00;15.70;;;;;;;18.31;100.00;98343.48;109505;1278;1017068;-76
2022/08/22 14:27:01;;;;;;;30.90;16.30;;;;;;;18.23;100.00;98339.16;109820;1277;1018950;-77
2022/08/22 14:32:45;;;;;;;30.30;15.50;;;;;;;18.18;100.00;98337.17;109718;1277;1016735;-77
2022/08/22 14:38:25;;;;;;;32.50;15.20;;;;;;;18.12;100.00;98334.64;109804;1277;1017187;-76
2022/08/22 14:44:26;;;;;;;34.90;16.00;;;;;;;18.06;100.00;98333.40;109589;1279;1016309;-76
2022/08/22 14:49:51;;;;;;;32.50;16.00;;;;;;;18.05;100.00;98343.60;109639;1277;1017971;-76
2022/08/22 14:55:25;;;;;;;27.00;14.30;;;;;;;18.13;100.00;98346.45;109506;1279;1016469;-77
2022/08/22 15:00:43;;;;;;;31.60;15.00;;;;;;;18.17;100.00;98349.71;109759;1277;1016270;-76
2022/08/22 15:06:47;;;;;;;;;;;;;;;;;;;;;
2022/08/22 15:12:40;;;;;;;31.00;15.60;;;;;;;18.17;100.00;98347.00;110045;1276;1018090;-76
2022/08/22 15:17:53;;;;;;;28.10;14.90;;;;;;;18.18;100.00;98343.06;109937;1277;1016620;-76
2022/08/22 15:23:23;;;;;;;31.60;15.60;;;;;;;18.08;100.00;98344.38;109810;1277;1018969;-76
2022/08/22 15:28:39;;;;;;;30.30;15.00;;;;;;;18.03;100.00;98340.44;109765;1277;1016392;-77
2022/08/22 15:34:10;;;;;;;32.90;15.60;;;;;;;17.97;100.00;98342.52;109684;1278;1016674;-76
2022/08/22 15:40:23;;;;;;;32.80;16.20;;;;;;;17.91;100.00;98343.63;109464;1281;1016415;-76
2022/08/22 15:45:49;;;;;;;38.30;17.50;;;;;;;17.88;100.00;98342.76;109308;1282;1019042;-77
2022/08/22 15:57:44;;;;;;;;;;;;;;;;;;;;;
2022/08/22 16:03:32;;;;;;;40.50;18.20;;;;;;;17.70;100.00;98328.27;109506;1280;1017203;-77
2022/08/22 16:08:50;;;;;;;44.90;19.90;;;;;;;17.67;100.00;98336.02;109593;1277;1016295;-77
2022/08/22 16:15:05;;;;;;;;;;;;;;;;;;;;;
2022/08/22 16:20:16;;;;;;;52.10;20.80;;;;;;;17.68;100.00;98335.78;109777;1277;1016661;-76
2022/08/22 16:25:51;;;;;;;54.00;22.10;;;;;;;17.69;100.00;98344.25;110074;1277;1017262;-76
2022/08/22 16:31:31;;;;;;;50.20;19.90;;;;;;;17.67;100.00;98350.23;109806;1277;1016723;-76
2022/08/22 16:37:51;;;;;;;58.90;22.30;;;;;;;17.64;100.00;98352.09;109550;1280;1020230;-76
2022/08/22 16:43:22;;;;;;;52.30;20.20;;;;;;;17.62;100.00;98362.27;109399;1280;1016711;-77
2022/08/22 16:48:59;;;;;;;;;;;;;;;;;;;;;
2022/08/22 16:54:54;;;;;;;53.10;21.30;;;;;;;17.60;100.00;98342.41;109411;1281;1016878;-76
2022/08/22 17:00:49;;;;;;;59.00;21.40;;;;;;;17.57;100.00;98339.54;109656;1277;1016692;-76
2022/08/22 17:06:37;;;;;;;67.70;23.80;;;;;;;17.57;100.00;98337.05;109676;1278;1016520;-76
2022/08/22 17:12:24;;;;;;;63.30;24.40;;;;;;;17.56;100.00;98333.86;109675;1278;1016572;-77
2022/08/22 17:17:30;;;;;;;71.90;24.50;;;;;;;17.57;100.00;98338.74;109728;1277;1017400;-78
2022/08/22 17:22:43;;;;;;;62.90;24.90;;;;;;;17.57;100.00;98348.52;109628;1281;1016461;-77
2022/08/22 17:28:38;;;;;;;56.50;22.90;;;;;;;17.59;100.00;98351.52;109782;1278;1018811;-77
2022/08/22 17:34:58;;;;;;;68.20;26.80;;;;;;;17.60;100.00;98353.41;109488;1278;1016164;-76
2022/08/22 17:40:10;;;;;;;62.60;24.80;;;;;;;17.63;100.00;98348.67;109487;1278;1016551;-75
2022/08/22 17:45:52;;;;;;;63.60;24.80;;;;;;;17.66;100.00;98337.15;109757;1277;1018043;-76
2022/08/22 17:51:22;;;;;;;61.60;26.40;;;;;;;17.69;100.00;98340.48;109599;1278;1016604;-76
2022/08/22 17:57:00;;;;;;;67.50;26.30;;;;;;;17.72;100.00;98338.93;109756;1278;1016732;-75
2022/08/22 18:02:39;;;;;;;69.50;26.70;;;;;;;17.75;100.00;98347.21;109696;1277;1017938;-76
2022/08/22 18:08:43;;;;;;;74.00;29.70;;;;;;;17.78;100.00;98347.61;109871;1277;1018248;-76
2022/08/22 18:14:44;;;;;;;73.90;28.40;;;;;;;17.82;100.00;98363.58;109625;1278;1018290;-76
2022/08/22 18:20:14;;;;;;;77.20;29.40;;;;;;;17.88;100.00;98373.87;109694;1277;1016124;-76
2022/08/22 18:25:40;;;;;;;63.30;28.40;;;;;;;17.92;100.00;98385.17;109812;1277;1016031;-76
2022/08/22 18:31:07;;;;;;;79.40;29.80;;;;;;;17.95;100.00;98377.80;109633;1278;1018714;-77
2022/08/22 18:36:39;;;;;;;77.10;29.80;;;;;;;17.99;100.00;98383.67;109807;1277;1017208;-77
2022/08/22 18:42:55;;;;;;;70.50;27.80;;;;;;;18.01;100.00;98381.98;109791;1277;1016724;-78
2022/08/22 18:48:17;;;;;;;72.50;30.40;;;;;;;18.03;100.00;98374.18;109934;1277;1016479;-77
2022/08/22 18:54:13;;;;;;;65.50;28.40;;;;;;;18.04;100.00;98367.73;109618;1277;1016748;-77
2022/08/22 19:00:25;;;;;;;71.30;29.10;;;;;;;18.04;100.00;98367.12;109693;1277;1018290;-77
2022/08/22 19:06:28;;;;;;;;;;;;;;;;;;;;;
2022/08/22 19:12:50;;;;;;;59.00;26.00;;;;;;;18.09;100.00;98380.24;109955;1277;1016951;-79
2022/08/22 19:18:55;;;;;;;68.70;28.50;;;;;;;18.10;100.00;98379.35;110042;1275;1016907;-78
2022/08/22 19:24:38;;;;;;;60.10;27.20;;;;;;;18.12;100.00;98371.12;110060;1277;1018927;-78
2022/08/22 19:29:59;;;;;;;61.90;28.40;;;;;;;18.16;100.00;98371.27;110012;1277;1016933;-79
2022/08/22 19:36:10;;;;;;;;;;;;;;;;;;;;;
2022/08/22 19:42:42;;;;;;;64.70;29.40;;;;;;;18.19;100.00;98361.52;110149;1276;1016609;-80
2022/08/22 19:48:27;;;;;;;;;;;;;;;;;;;;;
2022/08/22 19:53:40;;;;;;;63.10;27.60;;;;;;;18.22;100.00;98360.91;109887;1277;1017585;-80
2022/08/22 19:59:37;;;;;;;58.10;27.30;;;;;;;18.24;100.00;98356.01;110012;1277;1019751;-77
2022/08/22 20:05:57;;;;;;;;;;;;;;;;;;;;;
2022/08/22 20:12:01;;;;;;;61.20;28.50;;;;;;;18.28;100.00;98354.23;110152;1276;1016682;-79
2022/08/22 20:17:31;;;;;;;53.10;26.10;;;;;;;18.31;100.00;98350.13;110000;1277;1016425;-78
2022/08/22 20:23:28;;;;;;;56.80;27.70;;;;;;;18.33;100.00;98337.09;110083;1277;1016528;-80
2022/08/22 20:29:16;;;;;;;59.70;28.90;;;;;;;18.37;100.00;98328.50;109985;1277;1016660;-79
2022/08/22 20:35:37;;;;;;;60.30;28.10;;;;;;;18.40;100.00;98323.37;109995;1276;1016367;-78
2022/08/22 20:41:11;;;;;;;48.90;27.90;;;;;;;18.42;100.00;98312.42;109915;1276;1016649;-83
2022/08/22 20:46:47;;;;;;;47.30;27.60;;;;;;;18.45;100.00;98306.67;110153;1276;1016747;-83
2022/08/22 20:52:01;;;;;;;51.00;26.50;;;;;;;18.47;100.00;98300.84;110073;1276;1017680;-83
2022/08/22 20:57:15;;;;;;;45.70;27.00;;;;;;;18.48;100.00;98298.77;109892;1277;1016822;-83
2022/08/22 21:02:30;;;;;;;42.90;26.70;;;;;;;18.50;100.00;98301.21;109907;1277;1016136;-83
2022/08/22 21:07:43;;;;;;;52.40;28.10;;;;;;;18.51;100.00;98312.02;110098;1277;1016484;-82
2022/08/22 21:13:10;;;;;;;48.10;28.20;;;;;;;18.55;100.00;98310.92;110000;1277;1016310;-82
2022/08/22 21:18:38;;;;;;;47.70;27.90;;;;;;;18.57;100.00;98309.91;109981;1277;1018452;-84
2022/08/22 21:23:43;;;;;;;47.20;27.50;;;;;;;18.59;100.00;98313.61;110067;1277;1016355;-83
2022/08/22 21:29:02;;;;;;;48.80;28.00;;;;;;;18.63;100.00;98316.92;109847;1279;1016142;-82
2022/08/22 21:34:10;;;;;;;50.70;28.50;;;;;;;18.67;100.00;98341.36;110047;1277;1017139;-81
2022/08/22 21:39:53;;;;;;;41.40;23.30;;;;;;;18.68;100.00;98342.23;109929;1276;1016727;-81
2022/08/22 21:46:18;;;;;;;;;;;;;;;;;;;;;
2022/08/22 21:51:40;;;;;;;17.50;10.70;;;;;;;18.29;100.00;98337.92;109549;1283;1016505;-81
2022/08/22 21:57:33;;;;;;;14.10;8.90;;;;;;;18.08;100.00;98352.26;110005;1277;1018806;-81
2022/08/22 22:03:05;;;;;;;9.90;6.10;;;;;;;17.93;100.00;98351.00;110095;1276;1018892;-83
2022/08/22 22:08:17;;;;;;;10.40;6.10;;;;;;;17.68;100.00;98349.89;109998;1276;1018938;-82
2022/08/22 22:13:52;;;;;;;;;;;;;;;;;;;;;
2022/08/22 22:19:50;;;;;;;8.20;5.30;;;;;;;17.51;100.00;98349.11;109839;1277;1016733;-83
2022/08/22 22:25:24;;;;;;;8.60;4.60;;;;;;;17.39;100.00;98338.81;109853;1276;1016755;-84
2022/08/22 22:30:53;;;;;;;6.70;4.90;;;;;;;17.32;100.00;98354.39;110057;1276;1016333;-83
2022/08/22 22:36:36;;;;;;;7.60;4.60;;;;;;;17.26;100.00;98340.85;109835;1276;1016788;-83
2022/08/22 22:41:44;;;;;;;8.70;5.40;;;;;;;17.20;100.00;98319.94;110157;1277;1016627;-82
2022/08/22 22:47:05;;;;;;;7.30;4.70;;;;;;;17.15;100.00;98302.49;110124;1276;1015826;-82
2022/08/22 22:52:31;;;;;;;8.70;5.10;;;;;;;17.09;100.00;98296.83;109720;1277;1016884;-84
2022/08/22 22:58:39;;;;;;;;;;;;;;;;;;;;;
2022/08/22 23:03:44;;;;;;;6.20;4.00;;;;;;;16.98;100.00;98291.71;110110;1276;1018371;-83
2022/08/22 23:09:24;;;;;;;8.80;4.60;;;;;;;16.92;100.00;98296.96;110043;1276;1016586;-82
2022/08/22 23:15:15;;;;;;;10.40;4.80;;;;;;;16.89;100.00;98293.16;110129;1277;1017825;-83
2022/08/22 23:20:40;;;;;;;8.30;4.90;;;;;;;16.85;100.00;98286.07;109972;1277;1018371;-85
2022/08/22 23:26:36;;;;;;;;;;;;;;;;;;;;;
2022/08/22 23:32:14;;;;;;;8.90;5.10;;;;;;;16.82;100.00;98268.04;110041;1276;1016681;-83
2022/08/22 23:37:21;;;;;;;9.80;5.90;;;;;;;16.81;100.00;98281.15;109883;1276;1018198;-84
2022/08/22 23:42:49;;;;;;;10.30;6.10;;;;;;;16.81;100.00;98303.57;109853;1276;1016569;-84
2022/08/22 23:48:36;;;;;;;14.50;7.80;;;;;;;16.80;100.00;98295.96;110047;1276;1016460;-83
2022/08/22 23:54:15;;;;;;;16.30;8.70;;;;;;;16.81;100.00;98296.61;109990;1276;1016252;-82
